sensor_id;sensor_type;location;lat;lon;timestamp;P1;durP1;ratioP1;P2;durP2;ratioP2
59685;SDS011;45554;51.096;16.976;2022-12-07T00:01:41;11.40;;;6.60;;
59685;SDS011;45554;51.096;16.976;2022-12-07T00:04:12;11.50;;;6.00;;
59685;SDS011;45554;51.096;16.976;2022-12-07T00:06:42;9.90;;;5.80;;
59685;SDS011;45554;51.096;16.976;2022-12-07T00:09:13;10.30;;;5.40;;
59685;SDS011;45554;51.096;16.976;2022-12-07T00:11:43;8.40;;;4.60;;
59685;SDS011;45554;51.096;16.976;2022-12-07T00:16:43;7.90;;;4.50;;
59685;SDS011;45554;51.096;16.976;2022-12-07T00:19:12;9.80;;;5.10;;
59685;SDS011;45554;51.096;16.976;2022-12-07T00:21:41;10.00;;;5.00;;
59685;SDS011;45554;51.096;16.976;2022-12-07T00:24:09;8.90;;;4.70;;
59685;SDS011;45554;51.096;16.976;2022-12-07T00:26:39;7.80;;;4.40;;
59685;SDS011;45554;51.096;16.976;2022-12-07T00:29:18;7.40;;;3.70;;
59685;SDS011;45554;51.096;16.976;2022-12-07T00:34:19;6.20;;;3.80;;
59685;SDS011;45554;51.096;16.976;2022-12-07T00:36:48;6.40;;;3.00;;
59685;SDS011;45554;51.096;16.976;2022-12-07T00:39:17;6.20;;;3.50;;
59685;SDS011;45554;51.096;16.976;2022-12-07T00:41:45;7.40;;;3.50;;
59685;SDS011;45554;51.096;16.976;2022-12-07T00:44:13;5.80;;;3.00;;
59685;SDS011;45554;51.096;16.976;2022-12-07T00:46:40;8.00;;;3.20;;
59685;SDS011;45554;51.096;16.976;2022-12-07T00:49:08;7.60;;;3.20;;
59685;SDS011;45554;51.096;16.976;2022-12-07T00:51:36;5.90;;;3.10;;
59685;SDS011;45554;51.096;16.976;2022-12-07T00:54:04;5.00;;;2.70;;
59685;SDS011;45554;51.096;16.976;2022-12-07T00:56:32;4.60;;;2.70;;
59685;SDS011;45554;51.096;16.976;2022-12-07T00:59:01;5.50;;;3.00;;
59685;SDS011;45554;51.096;16.976;2022-12-07T01:01:53;5.00;;;2.60;;
59685;SDS011;45554;51.096;16.976;2022-12-07T01:05:23;6.50;;;3.20;;
59685;SDS011;45554;51.096;16.976;2022-12-07T01:09:26;5.50;;;2.90;;
59685;SDS011;45554;51.096;16.976;2022-12-07T01:12:53;5.90;;;2.80;;
59685;SDS011;45554;51.096;16.976;2022-12-07T01:16:14;4.40;;;2.60;;
59685;SDS011;45554;51.096;16.976;2022-12-07T01:18:48;5.60;;;2.70;;
59685;SDS011;45554;51.096;16.976;2022-12-07T01:21:20;6.50;;;2.60;;
59685;SDS011;45554;51.096;16.976;2022-12-07T01:23:52;5.70;;;3.00;;
59685;SDS011;45554;51.096;16.976;2022-12-07T01:26:23;4.90;;;2.70;;
59685;SDS011;45554;51.096;16.976;2022-12-07T01:28:52;5.70;;;2.80;;
59685;SDS011;45554;51.096;16.976;2022-12-07T01:31:23;5.20;;;2.50;;
59685;SDS011;45554;51.096;16.976;2022-12-07T01:33:57;6.50;;;2.80;;
59685;SDS011;45554;51.096;16.976;2022-12-07T01:38:57;5.00;;;2.40;;
59685;SDS011;45554;51.096;16.976;2022-12-07T01:41:27;3.80;;;2.30;;
59685;SDS011;45554;51.096;16.976;2022-12-07T01:44:18;5.80;;;2.80;;
59685;SDS011;45554;51.096;16.976;2022-12-07T01:47:08;5.80;;;2.90;;
59685;SDS011;45554;51.096;16.976;2022-12-07T01:49:45;5.00;;;2.50;;
59685;SDS011;45554;51.096;16.976;2022-12-07T01:52:17;6.40;;;2.70;;
59685;SDS011;45554;51.096;16.976;2022-12-07T01:54:53;5.80;;;2.40;;
59685;SDS011;45554;51.096;16.976;2022-12-07T01:57:29;6.50;;;2.50;;
59685;SDS011;45554;51.096;16.976;2022-12-07T02:00:00;5.40;;;2.30;;
59685;SDS011;45554;51.096;16.976;2022-12-07T02:02:41;4.60;;;2.00;;
59685;SDS011;45554;51.096;16.976;2022-12-07T02:05:13;5.50;;;2.20;;
59685;SDS011;45554;51.096;16.976;2022-12-07T02:07:42;4.90;;;2.00;;
59685;SDS011;45554;51.096;16.976;2022-12-07T02:10:17;4.00;;;1.80;;
59685;SDS011;45554;51.096;16.976;2022-12-07T02:12:47;3.00;;;1.90;;
59685;SDS011;45554;51.096;16.976;2022-12-07T02:15:19;4.10;;;1.80;;
59685;SDS011;45554;51.096;16.976;2022-12-07T02:17:51;5.20;;;2.30;;
59685;SDS011;45554;51.096;16.976;2022-12-07T02:20:37;6.80;;;1.90;;
59685;SDS011;45554;51.096;16.976;2022-12-07T02:23:49;4.80;;;1.90;;
59685;SDS011;45554;51.096;16.976;2022-12-07T02:30:14;4.20;;;1.70;;
59685;SDS011;45554;51.096;16.976;2022-12-07T02:35:50;5.20;;;1.80;;
59685;SDS011;45554;51.096;16.976;2022-12-07T02:38:31;3.70;;;1.80;;
59685;SDS011;45554;51.096;16.976;2022-12-07T02:43:57;4.40;;;1.70;;
59685;SDS011;45554;51.096;16.976;2022-12-07T02:46:30;5.10;;;1.60;;
59685;SDS011;45554;51.096;16.976;2022-12-07T02:49:01;5.80;;;2.10;;
59685;SDS011;45554;51.096;16.976;2022-12-07T02:51:30;3.60;;;2.00;;
59685;SDS011;45554;51.096;16.976;2022-12-07T02:53:59;3.90;;;1.90;;
59685;SDS011;45554;51.096;16.976;2022-12-07T03:08:10;6.40;;;2.00;;
59685;SDS011;45554;51.096;16.976;2022-12-07T03:10:56;4.50;;;2.40;;
59685;SDS011;45554;51.096;16.976;2022-12-07T03:16:07;4.30;;;2.30;;
59685;SDS011;45554;51.096;16.976;2022-12-07T03:18:50;4.30;;;2.10;;
59685;SDS011;45554;51.096;16.976;2022-12-07T03:21:25;3.20;;;1.90;;
59685;SDS011;45554;51.096;16.976;2022-12-07T03:23:59;3.70;;;2.00;;
59685;SDS011;45554;51.096;16.976;2022-12-07T03:26:32;4.50;;;2.20;;
59685;SDS011;45554;51.096;16.976;2022-12-07T03:29:06;3.10;;;1.90;;
59685;SDS011;45554;51.096;16.976;2022-12-07T03:31:41;4.00;;;2.00;;
59685;SDS011;45554;51.096;16.976;2022-12-07T03:34:16;5.50;;;2.60;;
59685;SDS011;45554;51.096;16.976;2022-12-07T03:36:57;3.30;;;1.90;;
59685;SDS011;45554;51.096;16.976;2022-12-07T03:39:37;4.20;;;2.10;;
59685;SDS011;45554;51.096;16.976;2022-12-07T03:42:07;3.80;;;1.90;;
59685;SDS011;45554;51.096;16.976;2022-12-07T03:44:37;4.60;;;2.30;;
59685;SDS011;45554;51.096;16.976;2022-12-07T03:47:12;4.40;;;2.00;;
59685;SDS011;45554;51.096;16.976;2022-12-07T03:50:04;3.50;;;2.10;;
59685;SDS011;45554;51.096;16.976;2022-12-07T03:53:00;3.00;;;1.90;;
59685;SDS011;45554;51.096;16.976;2022-12-07T03:55:36;3.50;;;1.90;;
59685;SDS011;45554;51.096;16.976;2022-12-07T03:58:10;5.00;;;2.20;;
59685;SDS011;45554;51.096;16.976;2022-12-07T04:00:42;4.50;;;2.10;;
59685;SDS011;45554;51.096;16.976;2022-12-07T04:03:11;3.80;;;2.20;;
59685;SDS011;45554;51.096;16.976;2022-12-07T04:05:39;3.50;;;1.90;;
59685;SDS011;45554;51.096;16.976;2022-12-07T04:08:07;3.10;;;1.80;;
59685;SDS011;45554;51.096;16.976;2022-12-07T04:10:36;3.30;;;2.20;;
59685;SDS011;45554;51.096;16.976;2022-12-07T04:13:04;5.10;;;2.20;;
59685;SDS011;45554;51.096;16.976;2022-12-07T04:15:32;3.30;;;2.00;;
59685;SDS011;45554;51.096;16.976;2022-12-07T04:18:00;3.50;;;2.00;;
59685;SDS011;45554;51.096;16.976;2022-12-07T04:20:28;3.20;;;2.10;;
59685;SDS011;45554;51.096;16.976;2022-12-07T04:22:56;3.30;;;2.00;;
59685;SDS011;45554;51.096;16.976;2022-12-07T04:25:24;4.00;;;2.10;;
59685;SDS011;45554;51.096;16.976;2022-12-07T04:27:52;3.70;;;2.00;;
59685;SDS011;45554;51.096;16.976;2022-12-07T04:30:21;4.60;;;2.40;;
59685;SDS011;45554;51.096;16.976;2022-12-07T04:32:49;2.80;;;1.80;;
59685;SDS011;45554;51.096;16.976;2022-12-07T04:35:17;3.40;;;2.40;;
59685;SDS011;45554;51.096;16.976;2022-12-07T04:37:44;3.70;;;2.30;;
59685;SDS011;45554;51.096;16.976;2022-12-07T04:40:12;3.20;;;2.10;;
59685;SDS011;45554;51.096;16.976;2022-12-07T04:42:41;3.40;;;2.20;;
59685;SDS011;45554;51.096;16.976;2022-12-07T04:45:09;9.50;;;3.00;;
59685;SDS011;45554;51.096;16.976;2022-12-07T04:47:37;4.80;;;2.60;;
59685;SDS011;45554;51.096;16.976;2022-12-07T04:50:05;4.00;;;2.30;;
59685;SDS011;45554;51.096;16.976;2022-12-07T04:52:34;4.90;;;2.30;;
59685;SDS011;45554;51.096;16.976;2022-12-07T04:55:02;4.50;;;2.50;;
59685;SDS011;45554;51.096;16.976;2022-12-07T04:57:30;6.50;;;3.00;;
59685;SDS011;45554;51.096;16.976;2022-12-07T04:59:57;4.80;;;2.70;;
59685;SDS011;45554;51.096;16.976;2022-12-07T05:02:26;5.10;;;3.10;;
59685;SDS011;45554;51.096;16.976;2022-12-07T05:04:54;5.00;;;2.80;;
59685;SDS011;45554;51.096;16.976;2022-12-07T05:07:22;8.40;;;3.60;;
59685;SDS011;45554;51.096;16.976;2022-12-07T05:09:50;6.10;;;3.00;;
59685;SDS011;45554;51.096;16.976;2022-12-07T05:12:18;6.80;;;3.40;;
59685;SDS011;45554;51.096;16.976;2022-12-07T05:14:45;7.90;;;3.70;;
59685;SDS011;45554;51.096;16.976;2022-12-07T05:17:14;6.70;;;3.10;;
59685;SDS011;45554;51.096;16.976;2022-12-07T05:19:42;7.10;;;3.80;;
59685;SDS011;45554;51.096;16.976;2022-12-07T05:22:09;7.50;;;3.70;;
59685;SDS011;45554;51.096;16.976;2022-12-07T05:24:38;8.50;;;4.10;;
59685;SDS011;45554;51.096;16.976;2022-12-07T05:27:06;8.80;;;3.80;;
59685;SDS011;45554;51.096;16.976;2022-12-07T05:29:34;7.50;;;3.80;;
59685;SDS011;45554;51.096;16.976;2022-12-07T05:32:02;9.00;;;4.80;;
59685;SDS011;45554;51.096;16.976;2022-12-07T05:34:30;9.50;;;5.20;;
59685;SDS011;45554;51.096;16.976;2022-12-07T05:36:58;9.60;;;5.40;;
59685;SDS011;45554;51.096;16.976;2022-12-07T05:39:26;10.20;;;5.40;;
59685;SDS011;45554;51.096;16.976;2022-12-07T05:41:53;11.30;;;6.00;;
59685;SDS011;45554;51.096;16.976;2022-12-07T05:44:40;11.80;;;6.40;;
59685;SDS011;45554;51.096;16.976;2022-12-07T05:47:13;13.90;;;7.40;;
59685;SDS011;45554;51.096;16.976;2022-12-07T05:49:43;13.70;;;7.00;;
59685;SDS011;45554;51.096;16.976;2022-12-07T05:52:11;15.00;;;7.90;;
59685;SDS011;45554;51.096;16.976;2022-12-07T05:54:38;13.30;;;7.50;;
59685;SDS011;45554;51.096;16.976;2022-12-07T05:57:06;14.10;;;7.30;;
59685;SDS011;45554;51.096;16.976;2022-12-07T05:59:34;14.20;;;8.20;;
59685;SDS011;45554;51.096;16.976;2022-12-07T06:02:06;14.10;;;7.80;;
59685;SDS011;45554;51.096;16.976;2022-12-07T06:04:39;15.70;;;7.80;;
59685;SDS011;45554;51.096;16.976;2022-12-07T06:07:09;18.90;;;9.80;;
59685;SDS011;45554;51.096;16.976;2022-12-07T06:09:39;17.00;;;9.50;;
59685;SDS011;45554;51.096;16.976;2022-12-07T06:12:08;16.70;;;9.90;;
59685;SDS011;45554;51.096;16.976;2022-12-07T06:14:57;15.10;;;8.40;;
59685;SDS011;45554;51.096;16.976;2022-12-07T06:17:25;16.90;;;9.30;;
59685;SDS011;45554;51.096;16.976;2022-12-07T06:19:53;18.00;;;9.40;;
59685;SDS011;45554;51.096;16.976;2022-12-07T06:22:21;18.90;;;10.90;;
59685;SDS011;45554;51.096;16.976;2022-12-07T06:24:50;16.00;;;9.20;;
59685;SDS011;45554;51.096;16.976;2022-12-07T06:27:18;18.40;;;10.70;;
59685;SDS011;45554;51.096;16.976;2022-12-07T06:29:46;17.40;;;9.50;;
59685;SDS011;45554;51.096;16.976;2022-12-07T06:32:13;17.20;;;10.10;;
59685;SDS011;45554;51.096;16.976;2022-12-07T06:34:41;17.60;;;10.40;;
59685;SDS011;45554;51.096;16.976;2022-12-07T06:37:09;19.30;;;10.30;;
59685;SDS011;45554;51.096;16.976;2022-12-07T06:39:37;16.90;;;9.30;;
59685;SDS011;45554;51.096;16.976;2022-12-07T06:42:06;17.00;;;10.20;;
59685;SDS011;45554;51.096;16.976;2022-12-07T06:44:34;18.10;;;10.00;;
59685;SDS011;45554;51.096;16.976;2022-12-07T06:47:02;18.50;;;10.30;;
59685;SDS011;45554;51.096;16.976;2022-12-07T06:49:50;19.00;;;9.50;;
59685;SDS011;45554;51.096;16.976;2022-12-07T06:52:18;18.10;;;9.60;;
59685;SDS011;45554;51.096;16.976;2022-12-07T06:54:46;17.40;;;10.70;;
59685;SDS011;45554;51.096;16.976;2022-12-07T06:57:14;17.30;;;9.50;;
59685;SDS011;45554;51.096;16.976;2022-12-07T06:59:42;17.60;;;9.60;;
59685;SDS011;45554;51.096;16.976;2022-12-07T07:02:11;16.10;;;9.00;;
59685;SDS011;45554;51.096;16.976;2022-12-07T07:04:39;17.80;;;9.80;;
59685;SDS011;45554;51.096;16.976;2022-12-07T07:07:07;16.90;;;9.30;;
59685;SDS011;45554;51.096;16.976;2022-12-07T07:09:35;17.10;;;9.20;;
59685;SDS011;45554;51.096;16.976;2022-12-07T07:12:03;15.60;;;8.60;;
59685;SDS011;45554;51.096;16.976;2022-12-07T07:14:31;17.70;;;9.00;;
59685;SDS011;45554;51.096;16.976;2022-12-07T07:16:59;17.30;;;9.70;;
59685;SDS011;45554;51.096;16.976;2022-12-07T07:19:27;17.20;;;9.50;;
59685;SDS011;45554;51.096;16.976;2022-12-07T07:21:55;15.40;;;8.70;;
59685;SDS011;45554;51.096;16.976;2022-12-07T07:24:23;17.70;;;9.20;;
59685;SDS011;45554;51.096;16.976;2022-12-07T07:26:51;15.30;;;9.10;;
59685;SDS011;45554;51.096;16.976;2022-12-07T07:29:19;16.70;;;9.20;;
59685;SDS011;45554;51.096;16.976;2022-12-07T07:31:47;17.90;;;10.00;;
59685;SDS011;45554;51.096;16.976;2022-12-07T07:34:15;16.40;;;8.60;;
59685;SDS011;45554;51.096;16.976;2022-12-07T07:36:43;17.40;;;9.50;;
59685;SDS011;45554;51.096;16.976;2022-12-07T07:39:11;17.30;;;9.50;;
59685;SDS011;45554;51.096;16.976;2022-12-07T07:41:40;15.00;;;8.70;;
59685;SDS011;45554;51.096;16.976;2022-12-07T07:44:11;14.30;;;7.80;;
59685;SDS011;45554;51.096;16.976;2022-12-07T07:46:39;18.00;;;9.10;;
59685;SDS011;45554;51.096;16.976;2022-12-07T07:49:08;16.20;;;9.70;;
59685;SDS011;45554;51.096;16.976;2022-12-07T07:51:37;16.60;;;10.00;;
59685;SDS011;45554;51.096;16.976;2022-12-07T07:54:05;15.90;;;9.00;;
59685;SDS011;45554;51.096;16.976;2022-12-07T07:56:35;15.50;;;8.70;;
59685;SDS011;45554;51.096;16.976;2022-12-07T07:59:03;15.30;;;9.00;;
59685;SDS011;45554;51.096;16.976;2022-12-07T08:01:31;16.70;;;9.20;;
59685;SDS011;45554;51.096;16.976;2022-12-07T08:03:59;15.00;;;8.70;;
59685;SDS011;45554;51.096;16.976;2022-12-07T08:06:28;19.30;;;9.90;;
59685;SDS011;45554;51.096;16.976;2022-12-07T08:08:59;17.20;;;9.50;;
59685;SDS011;45554;51.096;16.976;2022-12-07T08:11:27;18.80;;;10.20;;
59685;SDS011;45554;51.096;16.976;2022-12-07T08:13:55;14.30;;;8.30;;
59685;SDS011;45554;51.096;16.976;2022-12-07T08:16:25;16.30;;;9.10;;
59685;SDS011;45554;51.096;16.976;2022-12-07T08:18:53;16.70;;;9.60;;
59685;SDS011;45554;51.096;16.976;2022-12-07T08:21:21;16.20;;;10.00;;
59685;SDS011;45554;51.096;16.976;2022-12-07T08:23:49;14.30;;;7.70;;
59685;SDS011;45554;51.096;16.976;2022-12-07T08:26:17;16.80;;;8.70;;
59685;SDS011;45554;51.096;16.976;2022-12-07T08:28:45;17.30;;;9.20;;
59685;SDS011;45554;51.096;16.976;2022-12-07T08:31:14;16.40;;;8.60;;
59685;SDS011;45554;51.096;16.976;2022-12-07T08:33:45;16.40;;;8.30;;
59685;SDS011;45554;51.096;16.976;2022-12-07T08:36:15;13.70;;;7.50;;
59685;SDS011;45554;51.096;16.976;2022-12-07T08:38:43;16.70;;;8.50;;
59685;SDS011;45554;51.096;16.976;2022-12-07T08:41:32;15.90;;;8.20;;
59685;SDS011;45554;51.096;16.976;2022-12-07T08:44:03;14.00;;;8.30;;
59685;SDS011;45554;51.096;16.976;2022-12-07T08:46:35;14.00;;;8.40;;
59685;SDS011;45554;51.096;16.976;2022-12-07T08:49:08;14.10;;;8.20;;
59685;SDS011;45554;51.096;16.976;2022-12-07T08:51:39;14.30;;;7.90;;
59685;SDS011;45554;51.096;16.976;2022-12-07T08:54:09;14.10;;;7.90;;
59685;SDS011;45554;51.096;16.976;2022-12-07T08:56:39;15.50;;;7.60;;
59685;SDS011;45554;51.096;16.976;2022-12-07T08:59:08;15.70;;;8.60;;
59685;SDS011;45554;51.096;16.976;2022-12-07T09:01:36;15.30;;;7.60;;
59685;SDS011;45554;51.096;16.976;2022-12-07T09:04:04;14.30;;;8.20;;
59685;SDS011;45554;51.096;16.976;2022-12-07T09:06:33;13.60;;;7.70;;
59685;SDS011;45554;51.096;16.976;2022-12-07T09:09:02;13.70;;;7.80;;
59685;SDS011;45554;51.096;16.976;2022-12-07T09:11:30;13.70;;;7.40;;
59685;SDS011;45554;51.096;16.976;2022-12-07T09:13:58;11.40;;;6.80;;
59685;SDS011;45554;51.096;16.976;2022-12-07T09:16:26;13.50;;;6.70;;
59685;SDS011;45554;51.096;16.976;2022-12-07T09:18:55;12.40;;;6.80;;
59685;SDS011;45554;51.096;16.976;2022-12-07T09:21:23;11.30;;;6.10;;
59685;SDS011;45554;51.096;16.976;2022-12-07T09:23:51;12.00;;;6.20;;
59685;SDS011;45554;51.096;16.976;2022-12-07T09:26:19;11.40;;;6.10;;
59685;SDS011;45554;51.096;16.976;2022-12-07T09:28:47;10.40;;;5.60;;
59685;SDS011;45554;51.096;16.976;2022-12-07T09:31:15;11.30;;;5.90;;
59685;SDS011;45554;51.096;16.976;2022-12-07T09:33:53;8.00;;;4.50;;
59685;SDS011;45554;51.096;16.976;2022-12-07T09:36:27;9.10;;;4.70;;
59685;SDS011;45554;51.096;16.976;2022-12-07T09:38:56;9.60;;;5.00;;
59685;SDS011;45554;51.096;16.976;2022-12-07T09:41:24;9.90;;;5.00;;
59685;SDS011;45554;51.096;16.976;2022-12-07T09:44:02;8.30;;;4.40;;
59685;SDS011;45554;51.096;16.976;2022-12-07T09:46:36;9.20;;;4.90;;
59685;SDS011;45554;51.096;16.976;2022-12-07T09:49:15;8.10;;;4.60;;
59685;SDS011;45554;51.096;16.976;2022-12-07T09:51:45;9.10;;;4.80;;
59685;SDS011;45554;51.096;16.976;2022-12-07T09:54:16;9.90;;;4.70;;
59685;SDS011;45554;51.096;16.976;2022-12-07T09:59:13;8.60;;;4.60;;
59685;SDS011;45554;51.096;16.976;2022-12-07T10:01:46;9.60;;;4.90;;
59685;SDS011;45554;51.096;16.976;2022-12-07T10:04:18;9.40;;;4.40;;
59685;SDS011;45554;51.096;16.976;2022-12-07T10:06:50;10.20;;;4.70;;
59685;SDS011;45554;51.096;16.976;2022-12-07T10:09:19;11.10;;;4.70;;
59685;SDS011;45554;51.096;16.976;2022-12-07T10:12:08;9.50;;;4.50;;
59685;SDS011;45554;51.096;16.976;2022-12-07T10:14:38;9.30;;;4.70;;
59685;SDS011;45554;51.096;16.976;2022-12-07T10:17:39;7.40;;;3.60;;
59685;SDS011;45554;51.096;16.976;2022-12-07T10:23:03;7.90;;;3.60;;
59685;SDS011;45554;51.096;16.976;2022-12-07T10:25:35;8.10;;;4.40;;
59685;SDS011;45554;51.096;16.976;2022-12-07T10:31:03;9.40;;;5.20;;
59685;SDS011;45554;51.096;16.976;2022-12-07T10:33:51;8.80;;;4.10;;
59685;SDS011;45554;51.096;16.976;2022-12-07T10:36:40;6.60;;;3.60;;
59685;SDS011;45554;51.096;16.976;2022-12-07T10:39:15;8.00;;;3.60;;
59685;SDS011;45554;51.096;16.976;2022-12-07T10:42:20;7.80;;;3.50;;
59685;SDS011;45554;51.096;16.976;2022-12-07T10:44:48;6.40;;;3.30;;
59685;SDS011;45554;51.096;16.976;2022-12-07T10:55:55;7.10;;;2.90;;
59685;SDS011;45554;51.096;16.976;2022-12-07T11:07:11;7.20;;;3.10;;
59685;SDS011;45554;51.096;16.976;2022-12-07T11:12:57;5.00;;;2.90;;
59685;SDS011;45554;51.096;16.976;2022-12-07T11:19:00;5.70;;;2.70;;
59685;SDS011;45554;51.096;16.976;2022-12-07T11:22:00;5.90;;;3.00;;
59685;SDS011;45554;51.096;16.976;2022-12-07T11:27:37;7.60;;;3.40;;
59685;SDS011;45554;51.096;16.976;2022-12-07T11:30:17;8.60;;;3.60;;
59685;SDS011;45554;51.096;16.976;2022-12-07T11:35:49;6.60;;;3.10;;
59685;SDS011;45554;51.096;16.976;2022-12-07T11:41:55;4.70;;;2.70;;
59685;SDS011;45554;51.096;16.976;2022-12-07T12:04:02;5.20;;;2.90;;
59685;SDS011;45554;51.096;16.976;2022-12-07T12:06:42;6.20;;;3.00;;
59685;SDS011;45554;51.096;16.976;2022-12-07T12:09:17;6.30;;;3.00;;
59685;SDS011;45554;51.096;16.976;2022-12-07T12:23:19;6.10;;;3.30;;
59685;SDS011;45554;51.096;16.976;2022-12-07T12:26:04;5.80;;;3.40;;
59685;SDS011;45554;51.096;16.976;2022-12-07T12:31:39;7.10;;;3.40;;
59685;SDS011;45554;51.096;16.976;2022-12-07T12:42:44;7.80;;;3.80;;
59685;SDS011;45554;51.096;16.976;2022-12-07T12:45:20;6.20;;;3.40;;
59685;SDS011;45554;51.096;16.976;2022-12-07T12:47:59;7.30;;;3.40;;
59685;SDS011;45554;51.096;16.976;2022-12-07T12:50:32;5.70;;;3.10;;
59685;SDS011;45554;51.096;16.976;2022-12-07T13:01:33;7.40;;;3.30;;
59685;SDS011;45554;51.096;16.976;2022-12-07T13:04:12;6.10;;;3.50;;
59685;SDS011;45554;51.096;16.976;2022-12-07T13:06:55;9.40;;;3.80;;
59685;SDS011;45554;51.096;16.976;2022-12-07T13:14:52;6.40;;;3.70;;
59685;SDS011;45554;51.096;16.976;2022-12-07T13:19:59;7.70;;;3.50;;
59685;SDS011;45554;51.096;16.976;2022-12-07T13:25:07;6.80;;;3.90;;
59685;SDS011;45554;51.096;16.976;2022-12-07T13:27:40;6.90;;;3.70;;
59685;SDS011;45554;51.096;16.976;2022-12-07T13:30:15;8.30;;;3.90;;
59685;SDS011;45554;51.096;16.976;2022-12-07T13:32:51;9.90;;;4.30;;
59685;SDS011;45554;51.096;16.976;2022-12-07T13:38:34;8.70;;;4.60;;
59685;SDS011;45554;51.096;16.976;2022-12-07T13:41:10;7.00;;;3.80;;
59685;SDS011;45554;51.096;16.976;2022-12-07T13:43:44;7.00;;;3.80;;
59685;SDS011;45554;51.096;16.976;2022-12-07T13:46:15;7.00;;;3.60;;
59685;SDS011;45554;51.096;16.976;2022-12-07T13:48:49;9.20;;;4.50;;
59685;SDS011;45554;51.096;16.976;2022-12-07T13:51:19;8.90;;;4.70;;
59685;SDS011;45554;51.096;16.976;2022-12-07T13:54:00;7.00;;;4.10;;
59685;SDS011;45554;51.096;16.976;2022-12-07T13:56:32;9.80;;;4.00;;
59685;SDS011;45554;51.096;16.976;2022-12-07T13:59:02;9.30;;;4.40;;
59685;SDS011;45554;51.096;16.976;2022-12-07T14:01:32;11.20;;;4.80;;
59685;SDS011;45554;51.096;16.976;2022-12-07T14:04:16;8.70;;;4.00;;
59685;SDS011;45554;51.096;16.976;2022-12-07T14:06:49;9.10;;;4.80;;
59685;SDS011;45554;51.096;16.976;2022-12-07T14:09:22;9.30;;;4.70;;
59685;SDS011;45554;51.096;16.976;2022-12-07T14:11:52;10.10;;;5.00;;
59685;SDS011;45554;51.096;16.976;2022-12-07T14:14:25;10.40;;;4.60;;
59685;SDS011;45554;51.096;16.976;2022-12-07T14:17:11;10.30;;;4.80;;
59685;SDS011;45554;51.096;16.976;2022-12-07T14:19:50;8.80;;;4.50;;
59685;SDS011;45554;51.096;16.976;2022-12-07T14:27:33;10.00;;;4.60;;
59685;SDS011;45554;51.096;16.976;2022-12-07T14:30:03;8.70;;;4.10;;
59685;SDS011;45554;51.096;16.976;2022-12-07T14:32:35;10.20;;;4.50;;
59685;SDS011;45554;51.096;16.976;2022-12-07T14:35:09;7.50;;;4.00;;
59685;SDS011;45554;51.096;16.976;2022-12-07T14:37:40;9.00;;;3.40;;
59685;SDS011;45554;51.096;16.976;2022-12-07T14:40:12;10.00;;;3.50;;
59685;SDS011;45554;51.096;16.976;2022-12-07T14:42:41;8.00;;;3.40;;
59685;SDS011;45554;51.096;16.976;2022-12-07T14:45:13;8.30;;;3.40;;
59685;SDS011;45554;51.096;16.976;2022-12-07T14:47:43;7.00;;;3.60;;
59685;SDS011;45554;51.096;16.976;2022-12-07T14:50:34;6.70;;;3.40;;
59685;SDS011;45554;51.096;16.976;2022-12-07T14:53:09;6.50;;;3.50;;
59685;SDS011;45554;51.096;16.976;2022-12-07T14:55:48;7.10;;;3.50;;
59685;SDS011;45554;51.096;16.976;2022-12-07T14:58:17;9.10;;;3.50;;
59685;SDS011;45554;51.096;16.976;2022-12-07T15:00:45;8.40;;;3.70;;
59685;SDS011;45554;51.096;16.976;2022-12-07T15:03:15;8.30;;;4.20;;
59685;SDS011;45554;51.096;16.976;2022-12-07T15:05:43;8.20;;;4.00;;
59685;SDS011;45554;51.096;16.976;2022-12-07T15:08:12;9.50;;;4.70;;
59685;SDS011;45554;51.096;16.976;2022-12-07T15:10:40;9.40;;;4.50;;
59685;SDS011;45554;51.096;16.976;2022-12-07T15:13:08;8.70;;;4.40;;
59685;SDS011;45554;51.096;16.976;2022-12-07T15:15:56;12.10;;;5.60;;
59685;SDS011;45554;51.096;16.976;2022-12-07T15:18:24;9.80;;;4.90;;
59685;SDS011;45554;51.096;16.976;2022-12-07T15:20:52;14.50;;;6.80;;
59685;SDS011;45554;51.096;16.976;2022-12-07T15:23:20;13.70;;;5.60;;
59685;SDS011;45554;51.096;16.976;2022-12-07T15:25:48;16.70;;;6.50;;
59685;SDS011;45554;51.096;16.976;2022-12-07T15:28:16;17.40;;;6.80;;
59685;SDS011;45554;51.096;16.976;2022-12-07T15:30:45;18.40;;;7.10;;
59685;SDS011;45554;51.096;16.976;2022-12-07T15:33:13;18.60;;;7.60;;
59685;SDS011;45554;51.096;16.976;2022-12-07T15:35:42;16.60;;;7.20;;
59685;SDS011;45554;51.096;16.976;2022-12-07T15:38:12;15.40;;;6.70;;
59685;SDS011;45554;51.096;16.976;2022-12-07T15:40:40;16.90;;;7.10;;
59685;SDS011;45554;51.096;16.976;2022-12-07T15:43:08;13.60;;;5.90;;
59685;SDS011;45554;51.096;16.976;2022-12-07T15:45:58;11.50;;;5.90;;
59685;SDS011;45554;51.096;16.976;2022-12-07T15:48:26;10.30;;;5.20;;
59685;SDS011;45554;51.096;16.976;2022-12-07T15:51:06;10.50;;;4.80;;
59685;SDS011;45554;51.096;16.976;2022-12-07T15:53:35;11.50;;;5.10;;
59685;SDS011;45554;51.096;16.976;2022-12-07T15:56:06;8.30;;;4.90;;
59685;SDS011;45554;51.096;16.976;2022-12-07T15:58:35;12.00;;;5.00;;
59685;SDS011;45554;51.096;16.976;2022-12-07T16:01:13;11.30;;;5.30;;
59685;SDS011;45554;51.096;16.976;2022-12-07T16:03:42;10.10;;;5.40;;
59685;SDS011;45554;51.096;16.976;2022-12-07T16:08:45;13.10;;;4.90;;
59685;SDS011;45554;51.096;16.976;2022-12-07T16:11:14;10.80;;;5.10;;
59685;SDS011;45554;51.096;16.976;2022-12-07T16:13:42;10.50;;;4.60;;
59685;SDS011;45554;51.096;16.976;2022-12-07T16:16:12;10.00;;;5.80;;
59685;SDS011;45554;51.096;16.976;2022-12-07T16:18:42;11.60;;;6.10;;
59685;SDS011;45554;51.096;16.976;2022-12-07T16:21:11;10.40;;;4.40;;
59685;SDS011;45554;51.096;16.976;2022-12-07T16:23:40;9.00;;;4.70;;
59685;SDS011;45554;51.096;16.976;2022-12-07T16:26:10;8.20;;;4.40;;
59685;SDS011;45554;51.096;16.976;2022-12-07T16:28:41;9.80;;;4.60;;
59685;SDS011;45554;51.096;16.976;2022-12-07T16:31:12;8.70;;;3.60;;
59685;SDS011;45554;51.096;16.976;2022-12-07T16:33:43;9.70;;;4.30;;
59685;SDS011;45554;51.096;16.976;2022-12-07T16:36:12;10.60;;;5.00;;
59685;SDS011;45554;51.096;16.976;2022-12-07T16:39:03;10.00;;;4.90;;
59685;SDS011;45554;51.096;16.976;2022-12-07T16:41:32;10.80;;;5.10;;
59685;SDS011;45554;51.096;16.976;2022-12-07T16:44:02;10.80;;;5.00;;
59685;SDS011;45554;51.096;16.976;2022-12-07T16:46:36;9.80;;;4.70;;
59685;SDS011;45554;51.096;16.976;2022-12-07T16:49:04;10.20;;;4.70;;
59685;SDS011;45554;51.096;16.976;2022-12-07T16:51:31;10.30;;;4.80;;
59685;SDS011;45554;51.096;16.976;2022-12-07T16:54:02;11.60;;;5.00;;
59685;SDS011;45554;51.096;16.976;2022-12-07T16:56:30;13.30;;;5.40;;
59685;SDS011;45554;51.096;16.976;2022-12-07T16:58:59;11.70;;;5.40;;
59685;SDS011;45554;51.096;16.976;2022-12-07T17:01:29;11.60;;;4.70;;
59685;SDS011;45554;51.096;16.976;2022-12-07T17:03:57;10.50;;;5.10;;
59685;SDS011;45554;51.096;16.976;2022-12-07T17:06:27;9.40;;;5.00;;
59685;SDS011;45554;51.096;16.976;2022-12-07T17:08:56;10.60;;;5.70;;
59685;SDS011;45554;51.096;16.976;2022-12-07T17:11:27;12.20;;;5.40;;
59685;SDS011;45554;51.096;16.976;2022-12-07T17:13:56;10.10;;;5.10;;
59685;SDS011;45554;51.096;16.976;2022-12-07T17:16:43;15.00;;;6.70;;
59685;SDS011;45554;51.096;16.976;2022-12-07T17:19:13;12.50;;;5.70;;
59685;SDS011;45554;51.096;16.976;2022-12-07T17:21:43;13.50;;;6.20;;
59685;SDS011;45554;51.096;16.976;2022-12-07T17:24:13;11.80;;;5.60;;
59685;SDS011;45554;51.096;16.976;2022-12-07T17:26:43;13.50;;;5.90;;